createdAt,value
2022-12-31T00:02:52.575Z,141.02
2022-12-31T00:05:54.222Z,121.30
2022-12-31T00:09:00.799Z,142.17
2022-12-31T00:12:02.343Z,226.35
2022-12-31T00:15:04.048Z,147.80
2022-12-31T00:18:05.813Z,177.50
2022-12-31T00:21:08.427Z,136.05
2022-12-31T00:24:10.811Z,149.52
2022-12-31T00:27:12.453Z,175.85
2022-12-31T00:30:14.280Z,148.90
2022-12-31T00:33:15.867Z,132.23
2022-12-31T00:36:38.090Z,146.73
2022-12-31T00:39:42.417Z,118.80
2022-12-31T00:42:43.988Z,131.13
2022-12-31T00:45:45.621Z,173.07
2022-12-31T00:48:47.417Z,235.27
2022-12-31T00:51:52.758Z,159.85
2022-12-31T00:54:54.331Z,164.40
2022-12-31T00:57:55.901Z,187.52
2022-12-31T01:00:57.697Z,185.95
2022-12-31T01:04:01.673Z,198.80
2022-12-31T01:07:03.229Z,145.13
2022-12-31T01:10:05.376Z,111.33
2022-12-31T01:13:07.009Z,139.80
2022-12-31T01:16:12.945Z,211.70
2022-12-31T01:19:19.472Z,153.65
2022-12-31T01:22:24.493Z,137.82
2022-12-31T01:25:26.136Z,179.27
2022-12-31T01:28:28.075Z,141.23
2022-12-31T01:31:29.701Z,109.50
2022-12-31T01:34:31.348Z,136.55
2022-12-31T01:37:32.907Z,80.82
2022-12-31T01:40:38.418Z,79.90
2022-12-31T01:43:50.236Z,76.18
2022-12-31T01:46:51.800Z,68.60
2022-12-31T01:49:57.330Z,68.43
2022-12-31T01:53:07.063Z,72.00
2022-12-31T01:56:09.102Z,68.88
2022-12-31T01:59:10.885Z,69.50
2022-12-31T02:02:13.250Z,67.25
2022-12-31T02:05:27.735Z,64.13
2022-12-31T02:08:29.338Z,69.20
2022-12-31T02:11:37.873Z,59.67
2022-12-31T02:14:42.040Z,64.50
2022-12-31T02:18:15.511Z,61.45
2022-12-31T02:21:56.055Z,58.78
2022-12-31T02:25:28.464Z,55.33
2022-12-31T02:29:00.795Z,54.42
2022-12-31T02:32:06.261Z,56.25
2022-12-31T02:35:23.410Z,62.42
2022-12-31T02:38:36.609Z,82.03
2022-12-31T02:41:50.443Z,88.22
2022-12-31T02:44:52.027Z,80.53
2022-12-31T02:48:06.180Z,67.57
2022-12-31T02:51:16.664Z,75.85
2022-12-31T02:54:36.403Z,86.57
2022-12-31T02:57:46.784Z,164.35
2022-12-31T03:01:14.139Z,105.18
2022-12-31T03:04:34.141Z,136.45
2022-12-31T03:07:35.771Z,122.03
2022-12-31T03:10:37.372Z,173.53
2022-12-31T03:13:38.999Z,269.63
2022-12-31T03:16:40.624Z,132.63
2022-12-31T03:20:00.667Z,264.47
2022-12-31T03:23:08.818Z,128.13
2022-12-31T03:26:11.268Z,145.43
2022-12-31T03:29:12.867Z,102.95
2022-12-31T03:32:14.430Z,139.65
2022-12-31T03:35:16.858Z,158.82
2022-12-31T03:38:18.645Z,179.32
2022-12-31T03:41:23.611Z,207.80
2022-12-31T03:44:25.171Z,124.28
2022-12-31T03:47:26.948Z,138.98
2022-12-31T03:50:28.570Z,126.32
2022-12-31T03:53:30.369Z,154.70
2022-12-31T03:56:31.953Z,153.20
2022-12-31T03:59:33.570Z,122.97
2022-12-31T04:02:35.224Z,109.00
2022-12-31T04:05:36.898Z,116.68
2022-12-31T04:08:38.454Z,90.70
2022-12-31T04:11:43.628Z,83.07
2022-12-31T04:14:45.203Z,72.15
2022-12-31T04:17:47.160Z,69.68
2022-12-31T04:20:48.739Z,54.38
2022-12-31T04:23:50.315Z,73.30
2022-12-31T04:26:51.945Z,75.50
2022-12-31T04:29:53.540Z,91.97
2022-12-31T04:32:55.160Z,71.03
2022-12-31T04:36:03.596Z,117.38
2022-12-31T04:39:05.208Z,96.32
2022-12-31T04:42:10.843Z,76.05
2022-12-31T04:45:12.436Z,60.45
2022-12-31T04:48:14.026Z,62.08
2022-12-31T04:51:15.826Z,52.22
2022-12-31T04:54:17.419Z,60.90
2022-12-31T04:57:18.998Z,63.47
2022-12-31T05:00:20.599Z,74.88
2022-12-31T05:03:23.032Z,102.30
2022-12-31T05:06:24.708Z,74.45
2022-12-31T05:09:28.232Z,80.45
2022-12-31T05:12:29.879Z,88.63
2022-12-31T05:15:31.476Z,60.40
2022-12-31T05:18:33.436Z,54.95
2022-12-31T05:21:35.102Z,58.88
2022-12-31T05:24:36.704Z,55.93
2022-12-31T05:27:38.375Z,39.55
2022-12-31T05:30:40.150Z,37.13
2022-12-31T05:33:41.748Z,41.08
2022-12-31T05:36:43.376Z,39.30
2022-12-31T05:39:44.964Z,41.78
2022-12-31T05:42:50.969Z,43.90
2022-12-31T05:45:52.537Z,39.53
2022-12-31T05:48:54.190Z,45.63
2022-12-31T05:51:55.792Z,42.28
2022-12-31T05:54:57.394Z,43.13
2022-12-31T05:57:58.963Z,37.80
2022-12-31T06:01:00.609Z,40.70
2022-12-31T06:04:02.216Z,39.40
2022-12-31T06:07:03.803Z,51.05
2022-12-31T06:10:05.909Z,41.75
2022-12-31T06:13:07.658Z,38.10
2022-12-31T06:16:09.391Z,36.57
2022-12-31T06:19:11.148Z,36.50
2022-12-31T06:22:12.778Z,35.78
2022-12-31T06:25:14.405Z,38.83
2022-12-31T06:28:19.989Z,45.83
2022-12-31T06:31:22.124Z,39.30
2022-12-31T06:34:23.698Z,36.95
2022-12-31T06:37:25.295Z,37.17
2022-12-31T06:40:26.878Z,33.20
2022-12-31T06:43:28.454Z,29.67
2022-12-31T06:46:30.086Z,33.50
2022-12-31T06:49:31.686Z,33.03
2022-12-31T06:52:33.523Z,30.95
2022-12-31T06:55:35.534Z,30.70
2022-12-31T06:58:37.351Z,33.30
2022-12-31T07:01:44.344Z,30.90
2022-12-31T07:05:02.241Z,33.78
2022-12-31T07:08:14.110Z,30.80
2022-12-31T07:11:20.737Z,33.80
2022-12-31T07:14:44.976Z,31.65
2022-12-31T07:17:55.507Z,33.72
2022-12-31T07:20:57.413Z,29.90
2022-12-31T07:23:59.273Z,31.48
2022-12-31T07:27:29.842Z,32.33
2022-12-31T07:30:55.712Z,31.37
2022-12-31T07:34:02.110Z,32.65
2022-12-31T07:37:18.530Z,35.70
2022-12-31T07:40:50.902Z,35.05
2022-12-31T07:44:09.149Z,33.20
2022-12-31T07:47:29.273Z,33.08
2022-12-31T07:50:31.189Z,38.25
2022-12-31T07:53:33.031Z,35.23
2022-12-31T07:56:34.579Z,35.50
2022-12-31T08:00:07.480Z,30.92
2022-12-31T08:03:23.540Z,30.27
2022-12-31T08:06:28.023Z,32.38
2022-12-31T08:09:44.908Z,32.90
2022-12-31T08:12:47.445Z,33.03
2022-12-31T08:15:49.251Z,33.97
2022-12-31T08:18:51.072Z,35.55
2022-12-31T08:22:10.930Z,34.55
2022-12-31T08:25:38.525Z,38.45
2022-12-31T08:29:04.658Z,35.33
2022-12-31T08:32:06.284Z,41.70
2022-12-31T08:35:26.316Z,37.53
2022-12-31T08:38:30.856Z,32.80
2022-12-31T08:41:45.898Z,33.70
2022-12-31T08:45:08.967Z,33.80
2022-12-31T08:48:16.481Z,32.78
2022-12-31T08:51:20.406Z,32.10
2022-12-31T08:54:22.254Z,34.22
2022-12-31T08:57:23.812Z,31.60
2022-12-31T09:00:25.451Z,33.10
2022-12-31T09:03:30.119Z,39.23
2022-12-31T09:06:32.236Z,35.13
2022-12-31T09:09:38.340Z,37.95
2022-12-31T09:13:03.472Z,34.63
2022-12-31T09:16:25.740Z,36.72
2022-12-31T09:19:27.492Z,35.60
2022-12-31T09:22:29.296Z,34.38
2022-12-31T09:25:31.412Z,32.20
2022-12-31T09:28:47.049Z,34.88
2022-12-31T09:32:09.815Z,37.43
2022-12-31T09:35:33.000Z,32.30
2022-12-31T09:38:54.032Z,34.90
2022-12-31T09:41:55.572Z,33.72
2022-12-31T09:45:15.217Z,32.65
2022-12-31T09:48:49.862Z,30.13
2022-12-31T09:52:14.483Z,31.33
2022-12-31T09:55:30.473Z,33.72
2022-12-31T09:58:37.938Z,32.38
2022-12-31T10:02:23.104Z,29.60
2022-12-31T10:05:49.991Z,27.40
2022-12-31T10:09:12.834Z,28.58
2022-12-31T10:12:56.565Z,27.58
2022-12-31T10:16:15.612Z,24.00
2022-12-31T10:19:45.211Z,30.38
2022-12-31T10:23:16.660Z,30.33
2022-12-31T10:26:52.920Z,33.83
2022-12-31T10:30:04.032Z,34.05
2022-12-31T10:33:20.144Z,30.27
2022-12-31T10:36:58.377Z,24.73
2022-12-31T10:40:09.254Z,25.07
2022-12-31T10:43:38.023Z,24.98
2022-12-31T10:47:21.224Z,25.58
2022-12-31T10:50:46.084Z,22.15
2022-12-31T10:54:24.758Z,25.67
2022-12-31T10:57:35.183Z,23.73
2022-12-31T11:00:46.721Z,23.67
2022-12-31T11:04:00.324Z,35.97
2022-12-31T11:07:09.369Z,27.88
2022-12-31T11:10:45.003Z,38.80
2022-12-31T11:14:10.918Z,31.67
2022-12-31T11:17:21.434Z,40.10
2022-12-31T11:20:58.130Z,40.60
2022-12-31T11:24:19.153Z,43.75
2022-12-31T11:27:50.073Z,46.92
2022-12-31T11:31:09.293Z,29.50
2022-12-31T11:34:23.122Z,29.42
2022-12-31T11:37:45.627Z,30.73
2022-12-31T11:41:22.979Z,32.63
2022-12-31T11:44:34.949Z,26.95
2022-12-31T11:48:33.687Z,27.40
2022-12-31T11:52:07.950Z,29.17
2022-12-31T11:55:34.451Z,22.73
2022-12-31T11:58:36.025Z,22.17
2022-12-31T12:01:57.434Z,21.10
2022-12-31T12:05:05.039Z,21.07
2022-12-31T12:08:11.916Z,17.77
2022-12-31T12:11:22.079Z,21.55
2022-12-31T12:14:37.709Z,21.98
2022-12-31T12:17:39.505Z,20.70
2022-12-31T12:20:41.225Z,19.77
2022-12-31T12:23:56.560Z,15.75
2022-12-31T12:26:58.135Z,16.80
2022-12-31T12:30:24.830Z,16.77
2022-12-31T12:33:29.913Z,17.27
2022-12-31T12:36:31.901Z,18.53
2022-12-31T12:39:34.282Z,19.90
2022-12-31T12:42:35.849Z,20.58
2022-12-31T12:45:51.181Z,24.27
2022-12-31T12:48:55.390Z,21.45
2022-12-31T12:52:18.715Z,20.87
2022-12-31T12:55:26.297Z,19.63
2022-12-31T12:58:36.999Z,24.35
2022-12-31T13:01:42.935Z,24.08
2022-12-31T13:05:06.541Z,24.08
2022-12-31T13:08:50.754Z,26.17
2022-12-31T13:12:16.038Z,25.65
2022-12-31T13:15:39.077Z,21.33
2022-12-31T13:18:40.635Z,21.52
2022-12-31T13:21:59.456Z,28.02
2022-12-31T13:25:07.941Z,26.77
2022-12-31T13:28:11.739Z,28.67
2022-12-31T13:31:15.692Z,21.63
2022-12-31T13:34:22.265Z,22.60
2022-12-31T13:37:40.678Z,22.63
2022-12-31T13:40:52.683Z,21.13
2022-12-31T13:44:17.492Z,23.42
2022-12-31T13:47:24.857Z,20.05
2022-12-31T13:50:54.161Z,20.77
2022-12-31T13:54:25.372Z,19.88
2022-12-31T13:57:59.282Z,20.40
2022-12-31T14:01:18.722Z,24.15
2022-12-31T14:04:31.760Z,22.05
2022-12-31T14:07:43.470Z,18.98
2022-12-31T14:11:05.491Z,20.73
2022-12-31T14:14:22.810Z,22.50
2022-12-31T14:17:46.170Z,21.92
2022-12-31T14:21:02.400Z,26.75
2022-12-31T14:24:24.840Z,27.80
2022-12-31T14:27:30.139Z,25.67
2022-12-31T14:30:35.462Z,24.07
2022-12-31T14:33:43.604Z,22.52
2022-12-31T14:36:54.304Z,23.70
2022-12-31T14:40:10.849Z,20.88
2022-12-31T14:43:30.887Z,16.13
2022-12-31T14:46:57.334Z,15.30
2022-12-31T14:50:09.825Z,16.65
2022-12-31T14:53:25.185Z,18.67
2022-12-31T14:56:43.745Z,14.95
2022-12-31T14:59:55.716Z,14.73
2022-12-31T15:03:01.823Z,13.40
2022-12-31T15:06:18.319Z,12.52
2022-12-31T15:09:32.841Z,13.77
2022-12-31T15:13:01.115Z,12.85
2022-12-31T15:16:05.841Z,12.20
2022-12-31T15:19:47.495Z,12.50
2022-12-31T15:22:49.870Z,11.57
2022-12-31T15:25:58.678Z,9.45
2022-12-31T15:29:09.020Z,11.43
2022-12-31T15:32:22.446Z,11.15
2022-12-31T15:35:24.002Z,9.50
2022-12-31T15:38:39.818Z,9.98
2022-12-31T15:42:18.702Z,10.63
2022-12-31T15:45:11.412Z,9.48
2022-12-31T15:48:22.131Z,9.35
2022-12-31T15:51:30.103Z,8.27
2022-12-31T15:54:42.118Z,10.25
2022-12-31T15:57:43.709Z,8.52
2022-12-31T16:01:03.497Z,8.73
2022-12-31T16:04:08.796Z,11.25
2022-12-31T16:07:13.824Z,11.13
2022-12-31T16:10:21.997Z,10.55
2022-12-31T16:13:25.017Z,10.45
2022-12-31T16:16:26.560Z,8.77
2022-12-31T16:19:35.088Z,9.35
2022-12-31T16:22:37.914Z,10.57
2022-12-31T16:25:39.511Z,11.43
2022-12-31T16:28:41.100Z,10.40
2022-12-31T16:31:43.398Z,8.90
2022-12-31T16:34:45.443Z,10.15
2022-12-31T16:37:50.066Z,11.17
2022-12-31T16:41:00.798Z,10.38
2022-12-31T16:44:02.378Z,10.60
2022-12-31T16:47:04.008Z,11.48
2022-12-31T16:50:08.205Z,10.40
2022-12-31T16:53:11.109Z,11.67
2022-12-31T16:56:26.669Z,9.40
2022-12-31T16:59:35.357Z,9.77
2022-12-31T17:02:41.146Z,12.60
2022-12-31T17:06:06.222Z,11.48
2022-12-31T17:09:23.932Z,11.90
2022-12-31T17:12:28.135Z,13.23
2022-12-31T17:15:40.448Z,14.95
2022-12-31T17:18:43.579Z,11.30
2022-12-31T17:21:46.847Z,12.90
2022-12-31T17:24:48.516Z,12.43
2022-12-31T17:28:01.213Z,11.85
2022-12-31T17:31:22.758Z,10.40
2022-12-31T17:34:24.421Z,9.30
2022-12-31T17:37:30.186Z,10.95
2022-12-31T17:40:50.818Z,9.10
2022-12-31T17:43:56.535Z,10.35
2022-12-31T17:46:58.205Z,11.95
2022-12-31T17:49:59.804Z,9.63
2022-12-31T17:53:11.919Z,11.57
2022-12-31T17:56:18.257Z,9.57
2022-12-31T17:59:24.503Z,10.60
2022-12-31T18:02:26.332Z,9.00
2022-12-31T18:05:28.066Z,9.90
2022-12-31T18:08:29.693Z,9.68
2022-12-31T18:11:31.293Z,12.37
2022-12-31T18:14:32.918Z,8.57
2022-12-31T18:17:35.222Z,9.80
2022-12-31T18:20:36.780Z,11.60
2022-12-31T18:23:42.707Z,9.38
2022-12-31T18:26:44.336Z,11.97
2022-12-31T18:29:46.016Z,10.07
2022-12-31T18:32:47.744Z,9.70
2022-12-31T18:36:08.335Z,10.38
2022-12-31T18:39:10.167Z,9.65
2022-12-31T18:42:13.487Z,10.83
2022-12-31T18:45:16.480Z,9.50
2022-12-31T18:48:18.159Z,9.77
2022-12-31T18:51:31.091Z,9.57
2022-12-31T18:54:37.690Z,9.82
2022-12-31T18:57:39.262Z,10.77
2022-12-31T19:00:41.134Z,12.32
2022-12-31T19:03:42.742Z,9.30
2022-12-31T19:06:44.323Z,11.73
2022-12-31T19:09:47.207Z,19.17
2022-12-31T19:12:50.136Z,15.07
2022-12-31T19:15:52.655Z,11.23
2022-12-31T19:18:54.334Z,9.75
2022-12-31T19:21:55.992Z,10.70
2022-12-31T19:25:00.412Z,12.77
2022-12-31T19:28:02.902Z,8.93
2022-12-31T19:31:04.547Z,12.07
2022-12-31T19:34:06.110Z,10.93
2022-12-31T19:37:11.548Z,10.27
2022-12-31T19:40:15.185Z,10.02
2022-12-31T19:43:18.086Z,10.97
2022-12-31T19:46:19.768Z,9.07
2022-12-31T19:49:21.382Z,10.55
2022-12-31T19:52:22.961Z,11.23
2022-12-31T19:55:31.198Z,10.15
2022-12-31T19:58:32.902Z,12.57
2022-12-31T20:01:34.645Z,11.13
2022-12-31T20:04:36.337Z,13.05
2022-12-31T20:07:37.983Z,12.18
2022-12-31T20:10:39.614Z,11.15
2022-12-31T20:13:44.509Z,10.93
2022-12-31T20:16:46.158Z,11.05
2022-12-31T20:19:47.809Z,9.93
2022-12-31T20:22:49.404Z,9.00
2022-12-31T20:26:01.144Z,12.68
2022-12-31T20:29:02.707Z,10.70
2022-12-31T20:32:04.536Z,10.60
2022-12-31T20:35:06.762Z,9.95
2022-12-31T20:38:08.349Z,9.70
2022-12-31T20:41:13.946Z,10.45
2022-12-31T20:44:22.354Z,12.03
2022-12-31T20:47:30.712Z,9.68
2022-12-31T20:50:38.373Z,12.40
2022-12-31T20:53:46.389Z,10.35
2022-12-31T20:56:47.970Z,8.70
2022-12-31T20:59:56.379Z,9.73
2022-12-31T21:03:10.602Z,11.20
2022-12-31T21:06:19.674Z,11.38
2022-12-31T21:09:21.333Z,9.88
2022-12-31T21:12:41.206Z,9.52
2022-12-31T21:15:42.886Z,10.03
2022-12-31T21:18:44.502Z,12.85
2022-12-31T21:21:48.088Z,12.50
2022-12-31T21:24:49.853Z,9.45
2022-12-31T21:27:51.447Z,9.45
2022-12-31T21:31:03.380Z,12.63
2022-12-31T21:34:04.976Z,10.48
2022-12-31T21:37:10.841Z,12.50
2022-12-31T21:40:12.495Z,10.63
2022-12-31T21:43:14.758Z,13.15
2022-12-31T21:46:16.370Z,7.73
2022-12-31T21:49:21.709Z,9.93
2022-12-31T21:52:26.025Z,10.57
2022-12-31T21:55:46.028Z,10.60
2022-12-31T21:59:12.052Z,9.18
2022-12-31T22:02:32.000Z,10.20
2022-12-31T22:05:33.658Z,9.23
2022-12-31T22:08:35.259Z,10.77
2022-12-31T22:11:36.811Z,9.15
2022-12-31T22:14:38.403Z,7.93
2022-12-31T22:17:39.969Z,9.07
2022-12-31T22:20:44.439Z,10.77
2022-12-31T22:23:47.439Z,8.73
2022-12-31T22:26:49.050Z,8.88
2022-12-31T22:29:50.611Z,10.85
2022-12-31T22:32:52.202Z,10.23
2022-12-31T22:36:13.653Z,10.95
2022-12-31T22:39:43.765Z,10.02
2022-12-31T22:42:37.421Z,9.50
2022-12-31T22:45:39.017Z,9.20
2022-12-31T22:48:40.835Z,7.63
2022-12-31T22:51:56.517Z,9.35
2022-12-31T22:55:00.425Z,8.45
2022-12-31T22:58:01.993Z,8.18
2022-12-31T23:01:07.285Z,11.35
2022-12-31T23:04:09.021Z,12.77
2022-12-31T23:07:10.654Z,13.93
2022-12-31T23:10:35.803Z,9.30
2022-12-31T23:13:57.824Z,11.13
2022-12-31T23:17:31.210Z,9.95
2022-12-31T23:20:53.425Z,8.23
2022-12-31T23:23:55.086Z,10.95
2022-12-31T23:26:56.981Z,17.52
2022-12-31T23:29:58.615Z,10.48
2022-12-31T23:33:00.254Z,19.85
2022-12-31T23:36:05.486Z,13.57
2022-12-31T23:39:07.073Z,13.05
2022-12-31T23:42:08.775Z,14.00
2022-12-31T23:45:10.558Z,10.57
2022-12-31T23:48:12.156Z,11.25
2022-12-31T23:51:13.714Z,9.63
2022-12-31T23:54:15.949Z,10.90
2022-12-31T23:57:17.565Z,10.07
